createdAt,value
2016-03-10T21:57:48.717Z,954.77
2016-03-10T21:58:48.672Z,954.78
2016-03-10T21:59:48.675Z,954.83
2016-03-10T22:00:48.693Z,954.79
2016-03-10T22:01:48.712Z,954.78
2016-03-10T22:02:48.714Z,954.77
2016-03-10T22:03:48.780Z,954.76
2016-03-10T22:04:48.735Z,954.81
2016-03-10T22:05:48.738Z,954.79
2016-03-10T22:06:48.756Z,954.84
2016-03-10T22:07:48.775Z,954.8
2016-03-10T22:08:48.777Z,954.8
2016-03-10T22:09:48.796Z,954.8
2016-03-10T22:10:48.799Z,954.84
2016-03-10T22:11:48.816Z,954.84
2016-03-10T22:12:48.819Z,954.85
2016-03-10T22:13:48.822Z,954.85
2016-03-10T22:14:48.846Z,954.9
2016-03-10T22:15:48.849Z,954.91
2016-03-10T22:16:48.866Z,954.87
2016-03-10T22:17:48.869Z,954.89
2016-03-10T22:18:48.888Z,954.9
2016-03-10T22:19:48.890Z,954.94
2016-03-10T22:20:48.909Z,954.94
2016-03-10T22:21:48.912Z,954.94
2016-03-10T22:22:48.929Z,954.96
2016-03-10T22:23:48.932Z,955
2016-03-10T22:24:48.950Z,954.98
2016-03-10T22:25:48.953Z,955
2016-03-10T22:26:48.971Z,954.99
2016-03-10T22:27:48.973Z,954.98
2016-03-10T22:28:48.992Z,955.01
2016-03-10T22:29:48.995Z,954.94
2016-03-10T22:30:49.013Z,954.98
2016-03-10T22:31:49.016Z,954.93
2016-03-10T22:32:49.034Z,954.93
2016-03-10T22:33:49.037Z,954.93
2016-03-10T22:34:49.055Z,954.93
2016-03-10T22:35:49.059Z,954.9
2016-03-10T22:36:49.077Z,954.92
2016-03-10T22:37:49.080Z,954.91
2016-03-10T22:38:49.098Z,954.88
2016-03-10T22:39:49.100Z,954.9
2016-03-10T22:40:49.119Z,954.89
2016-03-10T22:41:49.122Z,954.91
2016-03-10T22:42:49.124Z,954.89
2016-03-10T22:43:49.142Z,954.93
2016-03-10T22:44:49.160Z,954.9
2016-03-10T22:45:49.179Z,954.89
2016-03-10T22:46:49.182Z,954.92
2016-03-10T22:47:49.184Z,954.89
2016-03-10T22:48:49.187Z,954.93
2016-03-10T22:49:49.205Z,954.94
2016-03-10T22:50:49.223Z,954.92
2016-03-10T22:51:49.226Z,954.94
2016-03-10T22:52:49.244Z,954.97
2016-03-10T22:53:49.247Z,954.98
2016-03-10T22:54:49.250Z,954.97
2016-03-10T22:55:49.268Z,954.98
2016-03-10T22:56:49.271Z,954.97
2016-03-10T22:57:49.290Z,954.94
2016-03-10T22:58:49.307Z,954.93
2016-03-10T22:59:49.295Z,954.95
2016-03-10T23:00:49.313Z,954.91
2016-03-10T23:01:49.331Z,954.96
2016-03-10T23:02:49.334Z,954.97
2016-03-10T23:03:49.353Z,954.98
2016-03-10T23:04:49.355Z,954.97
2016-03-10T23:05:49.373Z,954.99
2016-03-10T23:06:49.375Z,954.98
2016-03-10T23:07:49.378Z,955
2016-03-10T23:08:49.397Z,954.97
2016-03-10T23:09:49.399Z,954.99
2016-03-10T23:10:49.418Z,954.98
2016-03-10T23:11:49.421Z,955.03
2016-03-10T23:12:49.689Z,955.03
2016-03-10T23:13:49.442Z,955.07
2016-03-10T23:14:49.444Z,955.01
2016-03-10T23:15:49.463Z,955.01
2016-03-10T23:16:49.465Z,955.02
2016-03-10T23:17:49.483Z,954.99
2016-03-10T23:18:49.485Z,955.07
2016-03-10T23:19:49.489Z,955.06
2016-03-10T23:20:49.508Z,955.08
2016-03-10T23:21:49.526Z,955.1
2016-03-10T23:22:49.528Z,955.09
2016-03-10T23:23:49.532Z,955.11
2016-03-10T23:24:49.549Z,955.12
2016-03-10T23:25:49.552Z,955.16
2016-03-10T23:26:49.571Z,955.15
2016-03-10T23:27:49.573Z,955.16
2016-03-10T23:28:49.591Z,955.18
2016-03-10T23:29:49.594Z,955.14
2016-03-10T23:30:49.597Z,955.15
2016-03-10T23:31:49.615Z,955.15
2016-03-10T23:32:49.618Z,955.14
2016-03-10T23:33:49.636Z,955.18
2016-03-10T23:34:49.639Z,955.15
2016-03-10T23:35:49.657Z,955.14
2016-03-10T23:36:49.659Z,955.17
2016-03-10T23:37:49.678Z,955.17
2016-03-10T23:38:49.681Z,955.14
2016-03-10T23:39:49.684Z,955.17
2016-03-10T23:40:49.702Z,955.18
2016-03-10T23:41:49.705Z,955.16
2016-03-10T23:42:49.708Z,955.18
2016-03-10T23:43:49.741Z,955.2
2016-03-10T23:44:49.728Z,955.2
2016-03-10T23:45:49.747Z,955.22
2016-03-10T23:46:49.749Z,955.2
2016-03-10T23:47:49.768Z,955.19
2016-03-10T23:48:49.770Z,955.2
2016-03-10T23:49:49.773Z,955.2
2016-03-10T23:50:49.791Z,955.18
2016-03-10T23:51:49.793Z,955.16
2016-03-10T23:52:49.812Z,955.15
2016-03-10T23:53:49.815Z,955.18
2016-03-10T23:54:49.832Z,955.17
2016-03-10T23:55:49.835Z,955.18
2016-03-10T23:56:49.838Z,955.17
2016-03-10T23:57:49.856Z,955.19
2016-03-10T23:58:49.859Z,955.16
2016-03-10T23:59:49.878Z,955.2
